sensor_id;sensor_type;location;lat;lon;timestamp;pressure;altitude;pressure_sealevel;temperature;humidity
13209;BME280;6669;42.678;23.332;2023-02-12T00:00:53;95510.84;;;0.38;68.50
13209;BME280;6669;42.678;23.332;2023-02-12T00:03:22;95482.09;;;0.35;68.83
13209;BME280;6669;42.678;23.332;2023-02-12T00:05:50;95515.34;;;0.35;69.63
13209;BME280;6669;42.678;23.332;2023-02-12T00:08:18;95499.81;;;0.38;68.26
13209;BME280;6669;42.678;23.332;2023-02-12T00:10:46;95492.88;;;0.40;68.57
13209;BME280;6669;42.678;23.332;2023-02-12T00:13:14;95499.16;;;0.34;68.95
13209;BME280;6669;42.678;23.332;2023-02-12T00:15:42;95500.88;;;0.34;69.07
13209;BME280;6669;42.678;23.332;2023-02-12T00:18:10;95497.88;;;0.27;69.60
13209;BME280;6669;42.678;23.332;2023-02-12T00:20:39;95494.81;;;0.20;69.75
13209;BME280;6669;42.678;23.332;2023-02-12T00:23:08;95506.34;;;0.27;70.15
13209;BME280;6669;42.678;23.332;2023-02-12T00:25:40;95501.59;;;0.21;69.88
13209;BME280;6669;42.678;23.332;2023-02-12T00:28:08;95491.44;;;0.20;69.37
13209;BME280;6669;42.678;23.332;2023-02-12T00:30:36;95499.22;;;0.18;70.37
13209;BME280;6669;42.678;23.332;2023-02-12T00:33:04;95492.44;;;0.17;69.33
13209;BME280;6669;42.678;23.332;2023-02-12T00:35:32;95488.97;;;0.18;69.62
13209;BME280;6669;42.678;23.332;2023-02-12T00:38:01;95488.88;;;0.20;70.42
13209;BME280;6669;42.678;23.332;2023-02-12T00:40:29;95469.53;;;0.15;70.19
13209;BME280;6669;42.678;23.332;2023-02-12T00:42:57;95472.47;;;0.24;69.39
13209;BME280;6669;42.678;23.332;2023-02-12T00:45:25;95474.91;;;0.25;69.40
13209;BME280;6669;42.678;23.332;2023-02-12T00:47:52;95467.25;;;0.25;68.91
13209;BME280;6669;42.678;23.332;2023-02-12T00:50:20;95464.53;;;0.28;70.09
13209;BME280;6669;42.678;23.332;2023-02-12T00:52:48;95465.69;;;0.23;69.88
13209;BME280;6669;42.678;23.332;2023-02-12T00:55:18;95456.31;;;0.23;69.99
13209;BME280;6669;42.678;23.332;2023-02-12T00:57:46;95448.34;;;0.28;70.04
13209;BME280;6669;42.678;23.332;2023-02-12T01:00:14;95456.22;;;0.25;70.00
13209;BME280;6669;42.678;23.332;2023-02-12T01:02:42;95445.63;;;0.31;69.13
13209;BME280;6669;42.678;23.332;2023-02-12T01:05:10;95448.84;;;0.35;69.94
13209;BME280;6669;42.678;23.332;2023-02-12T01:07:38;95447.28;;;0.32;70.22
13209;BME280;6669;42.678;23.332;2023-02-12T01:10:08;95449.84;;;0.32;70.53
13209;BME280;6669;42.678;23.332;2023-02-12T01:12:37;95454.84;;;0.34;69.73
13209;BME280;6669;42.678;23.332;2023-02-12T01:15:06;95448.84;;;0.35;70.31
13209;BME280;6669;42.678;23.332;2023-02-12T01:17:36;95457.06;;;0.40;70.34
13209;BME280;6669;42.678;23.332;2023-02-12T01:20:05;95453.75;;;0.38;69.49
13209;BME280;6669;42.678;23.332;2023-02-12T01:22:34;95455.41;;;0.39;70.50
13209;BME280;6669;42.678;23.332;2023-02-12T01:25:02;95455.22;;;0.42;70.76
13209;BME280;6669;42.678;23.332;2023-02-12T01:27:30;95469.56;;;0.44;70.18
13209;BME280;6669;42.678;23.332;2023-02-12T01:30:00;95469.75;;;0.41;70.65
13209;BME280;6669;42.678;23.332;2023-02-12T01:32:28;95468.09;;;0.40;71.20
13209;BME280;6669;42.678;23.332;2023-02-12T01:34:55;95460.34;;;0.42;71.24
13209;BME280;6669;42.678;23.332;2023-02-12T01:37:23;95464.00;;;0.38;70.82
13209;BME280;6669;42.678;23.332;2023-02-12T01:39:51;95454.84;;;0.34;71.81
13209;BME280;6669;42.678;23.332;2023-02-12T01:42:19;95451.47;;;0.33;72.58
13209;BME280;6669;42.678;23.332;2023-02-12T01:45:31;95437.66;;;0.21;72.50
13209;BME280;6669;42.678;23.332;2023-02-12T01:48:06;95444.41;;;0.22;72.91
13209;BME280;6669;42.678;23.332;2023-02-12T01:50:35;95447.22;;;0.18;74.35
13209;BME280;6669;42.678;23.332;2023-02-12T01:53:02;95437.66;;;0.21;73.93
13209;BME280;6669;42.678;23.332;2023-02-12T01:55:30;95432.53;;;0.21;73.29
13209;BME280;6669;42.678;23.332;2023-02-12T01:57:58;95437.50;;;0.24;73.43
13209;BME280;6669;42.678;23.332;2023-02-12T02:00:26;95430.72;;;0.23;73.46
13209;BME280;6669;42.678;23.332;2023-02-12T02:02:57;95435.00;;;0.23;73.35
13209;BME280;6669;42.678;23.332;2023-02-12T02:05:30;95442.13;;;0.18;73.82
13209;BME280;6669;42.678;23.332;2023-02-12T02:08:00;95433.53;;;0.19;74.72
13209;BME280;6669;42.678;23.332;2023-02-12T02:10:28;95436.84;;;0.21;74.59
13209;BME280;6669;42.678;23.332;2023-02-12T02:12:56;95442.78;;;0.21;75.12
13209;BME280;6669;42.678;23.332;2023-02-12T02:15:45;95436.75;;;0.22;75.31
13209;BME280;6669;42.678;23.332;2023-02-12T02:18:18;95436.53;;;0.11;76.41
13209;BME280;6669;42.678;23.332;2023-02-12T02:21:18;95436.34;;;-0.01;77.03
13209;BME280;6669;42.678;23.332;2023-02-12T02:24:08;95436.97;;;-0.27;78.67
13209;BME280;6669;42.678;23.332;2023-02-12T02:26:57;95433.09;;;-0.35;79.28
13209;BME280;6669;42.678;23.332;2023-02-12T02:29:53;95448.44;;;-0.35;80.12
13209;BME280;6669;42.678;23.332;2023-02-12T02:32:28;95430.88;;;-0.41;81.67
13209;BME280;6669;42.678;23.332;2023-02-12T02:35:02;95433.97;;;-0.50;82.56
13209;BME280;6669;42.678;23.332;2023-02-12T02:37:35;95439.97;;;-0.51;83.39
13209;BME280;6669;42.678;23.332;2023-02-12T02:40:10;95427.47;;;-0.56;84.13
13209;BME280;6669;42.678;23.332;2023-02-12T02:42:43;95424.72;;;-0.53;84.57
13209;BME280;6669;42.678;23.332;2023-02-12T02:45:18;95428.13;;;-0.52;85.63
13209;BME280;6669;42.678;23.332;2023-02-12T02:47:51;95422.59;;;-0.60;86.94
13209;BME280;6669;42.678;23.332;2023-02-12T02:50:23;95433.63;;;-0.60;87.50
13209;BME280;6669;42.678;23.332;2023-02-12T02:52:56;95439.00;;;-0.64;88.58
13209;BME280;6669;42.678;23.332;2023-02-12T02:55:28;95433.72;;;-0.61;88.19
13209;BME280;6669;42.678;23.332;2023-02-12T02:58:00;95437.25;;;-0.48;87.93
13209;BME280;6669;42.678;23.332;2023-02-12T03:00:32;95436.09;;;-0.42;87.57
13209;BME280;6669;42.678;23.332;2023-02-12T03:03:07;95446.06;;;-0.38;87.06
13209;BME280;6669;42.678;23.332;2023-02-12T03:05:39;95441.69;;;-0.36;87.82
13209;BME280;6669;42.678;23.332;2023-02-12T03:08:11;95439.97;;;-0.35;87.25
13209;BME280;6669;42.678;23.332;2023-02-12T03:10:43;95442.50;;;-0.35;87.89
13209;BME280;6669;42.678;23.332;2023-02-12T03:13:17;95441.03;;;-0.39;88.13
13209;BME280;6669;42.678;23.332;2023-02-12T03:15:50;95442.94;;;-0.43;88.78
13209;BME280;6669;42.678;23.332;2023-02-12T03:18:24;95449.38;;;-0.36;89.00
13209;BME280;6669;42.678;23.332;2023-02-12T03:20:57;95439.31;;;-0.39;89.53
13209;BME280;6669;42.678;23.332;2023-02-12T03:23:31;95439.72;;;-0.30;89.35
13209;BME280;6669;42.678;23.332;2023-02-12T03:26:06;95434.50;;;-0.29;89.91
13209;BME280;6669;42.678;23.332;2023-02-12T03:28:37;95432.34;;;-0.21;89.84
13209;BME280;6669;42.678;23.332;2023-02-12T03:31:09;95429.19;;;-0.10;89.75
13209;BME280;6669;42.678;23.332;2023-02-12T03:33:49;95430.00;;;-0.09;90.54
13209;BME280;6669;42.678;23.332;2023-02-12T03:36:28;95433.22;;;-0.06;90.47
13209;BME280;6669;42.678;23.332;2023-02-12T03:39:07;95426.84;;;0.02;90.64
13209;BME280;6669;42.678;23.332;2023-02-12T03:41:42;95423.56;;;-0.01;90.72
13209;BME280;6669;42.678;23.332;2023-02-12T03:44:19;95428.09;;;-0.06;90.04
13209;BME280;6669;42.678;23.332;2023-02-12T03:46:57;95432.97;;;-0.01;90.00
13209;BME280;6669;42.678;23.332;2023-02-12T03:49:31;95424.44;;;-0.02;90.52
13209;BME280;6669;42.678;23.332;2023-02-12T03:52:02;95432.72;;;0.18;90.80
13209;BME280;6669;42.678;23.332;2023-02-12T03:54:30;95430.81;;;0.22;90.39
13209;BME280;6669;42.678;23.332;2023-02-12T03:57:02;95428.19;;;0.23;90.32
13209;BME280;6669;42.678;23.332;2023-02-12T03:59:34;95426.69;;;0.19;90.07
13209;BME280;6669;42.678;23.332;2023-02-12T04:02:03;95426.53;;;0.22;89.23
13209;BME280;6669;42.678;23.332;2023-02-12T04:04:33;95423.78;;;0.25;89.37
13209;BME280;6669;42.678;23.332;2023-02-12T04:07:01;95423.72;;;0.27;89.38
13209;BME280;6669;42.678;23.332;2023-02-12T04:09:30;95418.66;;;0.25;89.83
13209;BME280;6669;42.678;23.332;2023-02-12T04:12:08;95422.31;;;0.21;89.66
13209;BME280;6669;42.678;23.332;2023-02-12T04:14:47;95420.88;;;0.31;89.41
13209;BME280;6669;42.678;23.332;2023-02-12T04:17:21;95427.28;;;0.24;89.74
13209;BME280;6669;42.678;23.332;2023-02-12T04:20:04;95434.28;;;0.21;89.23
13209;BME280;6669;42.678;23.332;2023-02-12T04:22:44;95440.41;;;0.18;89.23
13209;BME280;6669;42.678;23.332;2023-02-12T04:25:21;95434.19;;;0.22;90.38
13209;BME280;6669;42.678;23.332;2023-02-12T04:27:59;95447.22;;;0.18;91.24
13209;BME280;6669;42.678;23.332;2023-02-12T04:30:34;95443.63;;;0.22;90.31
13209;BME280;6669;42.678;23.332;2023-02-12T04:33:05;95439.13;;;0.25;90.45
13209;BME280;6669;42.678;23.332;2023-02-12T04:35:42;95455.13;;;0.29;90.46
13209;BME280;6669;42.678;23.332;2023-02-12T04:38:14;95451.47;;;0.33;90.29
13209;BME280;6669;42.678;23.332;2023-02-12T04:40:45;95442.97;;;0.32;90.54
13209;BME280;6669;42.678;23.332;2023-02-12T04:43:14;95451.22;;;0.52;90.19
13209;BME280;6669;42.678;23.332;2023-02-12T04:45:52;95446.38;;;0.47;89.48
13209;BME280;6669;42.678;23.332;2023-02-12T04:48:20;95441.16;;;0.35;89.02
13209;BME280;6669;42.678;23.332;2023-02-12T04:50:50;95456.88;;;0.57;89.30
13209;BME280;6669;42.678;23.332;2023-02-12T04:53:18;95460.09;;;0.61;89.77
13209;BME280;6669;42.678;23.332;2023-02-12T04:55:46;95462.28;;;0.53;89.37
13209;BME280;6669;42.678;23.332;2023-02-12T04:58:16;95462.72;;;0.45;90.25
13209;BME280;6669;42.678;23.332;2023-02-12T05:00:44;95462.53;;;0.34;90.21
13209;BME280;6669;42.678;23.332;2023-02-12T05:03:12;95465.19;;;0.32;90.76
13209;BME280;6669;42.678;23.332;2023-02-12T05:05:40;95452.00;;;0.24;91.29
13209;BME280;6669;42.678;23.332;2023-02-12T05:08:09;95459.66;;;0.24;91.75
13209;BME280;6669;42.678;23.332;2023-02-12T05:10:37;95464.66;;;0.11;91.85
13209;BME280;6669;42.678;23.332;2023-02-12T05:13:05;95465.09;;;0.03;92.87
13209;BME280;6669;42.678;23.332;2023-02-12T05:15:33;95470.31;;;-0.14;94.00
13209;BME280;6669;42.678;23.332;2023-02-12T05:18:00;95467.69;;;-0.13;94.22
13209;BME280;6669;42.678;23.332;2023-02-12T05:20:28;95478.47;;;-0.08;94.43
13209;BME280;6669;42.678;23.332;2023-02-12T05:22:56;95472.78;;;-0.13;94.57
13209;BME280;6669;42.678;23.332;2023-02-12T05:25:25;95480.31;;;-0.10;96.20
13209;BME280;6669;42.678;23.332;2023-02-12T05:27:53;95486.97;;;-0.07;95.87
13209;BME280;6669;42.678;23.332;2023-02-12T05:30:22;95486.69;;;-0.03;96.04
13209;BME280;6669;42.678;23.332;2023-02-12T05:32:50;95498.44;;;0.02;95.38
13209;BME280;6669;42.678;23.332;2023-02-12T05:35:18;95497.59;;;0.01;95.81
13209;BME280;6669;42.678;23.332;2023-02-12T05:37:45;95494.88;;;0.04;97.63
13209;BME280;6669;42.678;23.332;2023-02-12T05:40:14;95491.91;;;-0.04;98.84
13209;BME280;6669;42.678;23.332;2023-02-12T05:42:43;95493.31;;;0.02;100.00
13209;BME280;6669;42.678;23.332;2023-02-12T05:45:11;95495.88;;;0.02;100.00
13209;BME280;6669;42.678;23.332;2023-02-12T05:47:39;95510.06;;;-0.09;100.00
13209;BME280;6669;42.678;23.332;2023-02-12T05:50:08;95526.81;;;-0.19;100.00
13209;BME280;6669;42.678;23.332;2023-02-12T05:52:36;95526.31;;;-0.26;100.00
13209;BME280;6669;42.678;23.332;2023-02-12T05:55:05;95517.25;;;-0.31;100.00
13209;BME280;6669;42.678;23.332;2023-02-12T05:57:33;95527.00;;;-0.38;100.00
13209;BME280;6669;42.678;23.332;2023-02-12T06:00:03;95509.84;;;-0.52;100.00
13209;BME280;6669;42.678;23.332;2023-02-12T06:02:32;95515.19;;;-0.57;100.00
13209;BME280;6669;42.678;23.332;2023-02-12T06:05:00;95518.41;;;-0.53;100.00
13209;BME280;6669;42.678;23.332;2023-02-12T06:07:28;95518.09;;;-0.47;100.00
13209;BME280;6669;42.678;23.332;2023-02-12T06:09:56;95527.22;;;-0.43;100.00
13209;BME280;6669;42.678;23.332;2023-02-12T06:12:25;95520.28;;;-0.41;100.00
13209;BME280;6669;42.678;23.332;2023-02-12T06:14:52;95514.03;;;-0.35;100.00
13209;BME280;6669;42.678;23.332;2023-02-12T06:17:22;95512.72;;;-0.42;100.00
13209;BME280;6669;42.678;23.332;2023-02-12T06:19:50;95530.34;;;-0.38;100.00
13209;BME280;6669;42.678;23.332;2023-02-12T06:22:17;95526.00;;;-0.36;100.00
13209;BME280;6669;42.678;23.332;2023-02-12T06:24:45;95518.97;;;-0.32;100.00
13209;BME280;6669;42.678;23.332;2023-02-12T06:27:13;95516.91;;;-0.41;100.00
13209;BME280;6669;42.678;23.332;2023-02-12T06:29:41;95530.50;;;-0.41;100.00
13209;BME280;6669;42.678;23.332;2023-02-12T06:32:09;95538.34;;;-0.44;100.00
13209;BME280;6669;42.678;23.332;2023-02-12T06:34:40;95525.91;;;-0.50;100.00
13209;BME280;6669;42.678;23.332;2023-02-12T06:37:11;95519.06;;;-0.50;100.00
13209;BME280;6669;42.678;23.332;2023-02-12T06:39:39;95534.31;;;-0.48;100.00
13209;BME280;6669;42.678;23.332;2023-02-12T06:42:07;95537.94;;;-0.52;100.00
13209;BME280;6669;42.678;23.332;2023-02-12T06:44:35;95546.75;;;-0.58;100.00
13209;BME280;6669;42.678;23.332;2023-02-12T06:47:03;95527.22;;;-0.59;100.00
13209;BME280;6669;42.678;23.332;2023-02-12T06:49:31;95535.31;;;-0.51;100.00
13209;BME280;6669;42.678;23.332;2023-02-12T06:52:00;95526.22;;;-0.56;100.00
13209;BME280;6669;42.678;23.332;2023-02-12T06:54:29;95526.06;;;-0.53;100.00
13209;BME280;6669;42.678;23.332;2023-02-12T06:56:57;95533.41;;;-0.47;100.00
13209;BME280;6669;42.678;23.332;2023-02-12T06:59:24;95538.75;;;-0.52;100.00
13209;BME280;6669;42.678;23.332;2023-02-12T07:01:52;95549.06;;;-0.53;100.00
13209;BME280;6669;42.678;23.332;2023-02-12T07:04:20;95536.03;;;-0.48;100.00
13209;BME280;6669;42.678;23.332;2023-02-12T07:06:48;95533.25;;;-0.44;100.00
13209;BME280;6669;42.678;23.332;2023-02-12T07:09:17;95523.69;;;-0.40;100.00
13209;BME280;6669;42.678;23.332;2023-02-12T07:11:45;95523.84;;;-0.43;100.00
13209;BME280;6669;42.678;23.332;2023-02-12T07:14:14;95529.78;;;-0.43;100.00
13209;BME280;6669;42.678;23.332;2023-02-12T07:16:42;95532.34;;;-0.43;100.00
13209;BME280;6669;42.678;23.332;2023-02-12T07:19:12;95528.94;;;-0.43;100.00
13209;BME280;6669;42.678;23.332;2023-02-12T07:21:40;95533.91;;;-0.40;100.00
13209;BME280;6669;42.678;23.332;2023-02-12T07:24:09;95534.81;;;-0.25;100.00
13209;BME280;6669;42.678;23.332;2023-02-12T07:26:40;95533.78;;;-0.07;100.00
13209;BME280;6669;42.678;23.332;2023-02-12T07:29:09;95545.47;;;-0.03;100.00
13209;BME280;6669;42.678;23.332;2023-02-12T07:31:38;95543.44;;;-0.12;100.00
13209;BME280;6669;42.678;23.332;2023-02-12T07:34:08;95538.19;;;-0.09;100.00
13209;BME280;6669;42.678;23.332;2023-02-12T07:36:37;95543.44;;;0.04;100.00
13209;BME280;6669;42.678;23.332;2023-02-12T07:39:05;95553.75;;;0.03;100.00
13209;BME280;6669;42.678;23.332;2023-02-12T07:41:34;95549.78;;;-0.03;100.00
13209;BME280;6669;42.678;23.332;2023-02-12T07:44:05;95562.25;;;0.03;100.00
13209;BME280;6669;42.678;23.332;2023-02-12T07:46:37;95558.59;;;0.07;100.00
13209;BME280;6669;42.678;23.332;2023-02-12T07:49:06;95562.16;;;0.05;100.00
13209;BME280;6669;42.678;23.332;2023-02-12T07:51:36;95553.75;;;0.03;100.00
13209;BME280;6669;42.678;23.332;2023-02-12T07:54:04;95551.91;;;0.05;100.00
13209;BME280;6669;42.678;23.332;2023-02-12T07:56:34;95547.13;;;-0.02;100.00
13209;BME280;6669;42.678;23.332;2023-02-12T07:59:06;95554.50;;;-0.27;100.00
13209;BME280;6669;42.678;23.332;2023-02-12T08:01:35;95550.63;;;-0.35;100.00
13209;BME280;6669;42.678;23.332;2023-02-12T08:04:06;95557.97;;;-0.28;100.00
13209;BME280;6669;42.678;23.332;2023-02-12T08:06:36;95555.06;;;-0.22;100.00
13209;BME280;6669;42.678;23.332;2023-02-12T08:09:07;95550.19;;;-0.27;100.00
13209;BME280;6669;42.678;23.332;2023-02-12T08:11:36;95556.88;;;-0.24;100.00
13209;BME280;6669;42.678;23.332;2023-02-12T08:14:07;95554.31;;;-0.24;100.00
13209;BME280;6669;42.678;23.332;2023-02-12T08:16:36;95554.81;;;-0.34;100.00
13209;BME280;6669;42.678;23.332;2023-02-12T08:19:05;95554.81;;;-0.34;100.00
13209;BME280;6669;42.678;23.332;2023-02-12T08:21:45;95550.94;;;-0.41;100.00
13209;BME280;6669;42.678;23.332;2023-02-12T08:24:13;95550.88;;;-0.39;100.00
13209;BME280;6669;42.678;23.332;2023-02-12T08:26:41;95564.88;;;-0.46;100.00
13209;BME280;6669;42.678;23.332;2023-02-12T08:29:13;95575.09;;;-0.46;100.00
13209;BME280;6669;42.678;23.332;2023-02-12T08:31:43;95571.16;;;-0.52;100.00
13209;BME280;6669;42.678;23.332;2023-02-12T08:34:16;95576.75;;;-0.45;100.00
13209;BME280;6669;42.678;23.332;2023-02-12T08:36:46;95579.88;;;-0.40;100.00
13209;BME280;6669;42.678;23.332;2023-02-12T08:39:15;95577.41;;;-0.42;100.00
13209;BME280;6669;42.678;23.332;2023-02-12T08:41:43;95584.09;;;-0.39;100.00
13209;BME280;6669;42.678;23.332;2023-02-12T08:44:13;95591.44;;;-0.33;100.00
13209;BME280;6669;42.678;23.332;2023-02-12T08:46:44;95588.47;;;-0.25;100.00
13209;BME280;6669;42.678;23.332;2023-02-12T08:49:14;95591.50;;;-0.19;100.00
13209;BME280;6669;42.678;23.332;2023-02-12T08:51:45;95594.47;;;-0.26;100.00
13209;BME280;6669;42.678;23.332;2023-02-12T08:54:16;95605.44;;;-0.24;100.00
13209;BME280;6669;42.678;23.332;2023-02-12T08:56:45;95601.06;;;-0.38;100.00
13209;BME280;6669;42.678;23.332;2023-02-12T08:59:15;95588.59;;;-0.60;100.00
13209;BME280;6669;42.678;23.332;2023-02-12T09:01:43;95603.00;;;-0.43;100.00
13209;BME280;6669;42.678;23.332;2023-02-12T09:04:14;95604.84;;;-0.45;100.00
13209;BME280;6669;42.678;23.332;2023-02-12T09:06:44;95606.31;;;-0.41;100.00
13209;BME280;6669;42.678;23.332;2023-02-12T09:09:13;95618.28;;;-0.42;100.00
13209;BME280;6669;42.678;23.332;2023-02-12T09:11:41;95625.28;;;-0.29;100.00
13209;BME280;6669;42.678;23.332;2023-02-12T09:14:12;95613.25;;;-0.27;100.00
13209;BME280;6669;42.678;23.332;2023-02-12T09:16:42;95624.25;;;-0.25;100.00
13209;BME280;6669;42.678;23.332;2023-02-12T09:19:12;95614.16;;;-0.28;100.00
13209;BME280;6669;42.678;23.332;2023-02-12T09:21:40;95620.94;;;-0.27;100.00
13209;BME280;6669;42.678;23.332;2023-02-12T09:24:09;95622.41;;;-0.23;100.00
13209;BME280;6669;42.678;23.332;2023-02-12T09:26:38;95619.75;;;-0.22;100.00
13209;BME280;6669;42.678;23.332;2023-02-12T09:29:06;95621.09;;;-0.14;100.00
13209;BME280;6669;42.678;23.332;2023-02-12T09:31:34;95623.25;;;-0.07;100.00
13209;BME280;6669;42.678;23.332;2023-02-12T09:34:05;95622.00;;;-0.15;100.00
13209;BME280;6669;42.678;23.332;2023-02-12T09:36:33;95623.34;;;-0.08;100.00
13209;BME280;6669;42.678;23.332;2023-02-12T09:39:02;95621.59;;;0.08;100.00
13209;BME280;6669;42.678;23.332;2023-02-12T09:42:10;95632.63;;;0.09;100.00
13209;BME280;6669;42.678;23.332;2023-02-12T09:44:45;95639.50;;;0.24;100.00
13209;BME280;6669;42.678;23.332;2023-02-12T09:47:21;95637.28;;;0.18;100.00
13209;BME280;6669;42.678;23.332;2023-02-12T09:50:08;95634.88;;;0.15;100.00
13209;BME280;6669;42.678;23.332;2023-02-12T09:52:39;95642.88;;;0.09;100.00
13209;BME280;6669;42.678;23.332;2023-02-12T09:55:13;95638.44;;;-0.04;100.00
13209;BME280;6669;42.678;23.332;2023-02-12T09:57:42;95642.88;;;-0.07;100.00
13209;BME280;6669;42.678;23.332;2023-02-12T10:00:15;95638.16;;;0.01;100.00
13209;BME280;6669;42.678;23.332;2023-02-12T10:02:45;95638.69;;;0.08;100.00
13209;BME280;6669;42.678;23.332;2023-02-12T10:05:17;95629.94;;;0.12;100.00
13209;BME280;6669;42.678;23.332;2023-02-12T10:08:00;95635.78;;;0.14;100.00
13209;BME280;6669;42.678;23.332;2023-02-12T10:10:45;95636.44;;;0.18;100.00
13209;BME280;6669;42.678;23.332;2023-02-12T10:13:24;95641.63;;;0.16;100.00
13209;BME280;6669;42.678;23.332;2023-02-12T10:15:59;95634.16;;;0.13;100.00
13209;BME280;6669;42.678;23.332;2023-02-12T10:18:52;95637.53;;;0.29;100.00
13209;BME280;6669;42.678;23.332;2023-02-12T10:21:39;95645.16;;;0.45;100.00
13209;BME280;6669;42.678;23.332;2023-02-12T10:24:26;95639.03;;;0.64;100.00
13209;BME280;6669;42.678;23.332;2023-02-12T10:26:58;95640.75;;;0.94;100.00
13209;BME280;6669;42.678;23.332;2023-02-12T10:29:30;95635.75;;;1.07;100.00
13209;BME280;6669;42.678;23.332;2023-02-12T10:32:03;95649.59;;;1.19;100.00
13209;BME280;6669;42.678;23.332;2023-02-12T10:34:34;95643.06;;;0.98;100.00
13209;BME280;6669;42.678;23.332;2023-02-12T10:37:10;95655.31;;;0.93;100.00
13209;BME280;6669;42.678;23.332;2023-02-12T10:39:44;95641.41;;;0.97;100.00
13209;BME280;6669;42.678;23.332;2023-02-12T10:42:17;95636.19;;;0.99;100.00
13209;BME280;6669;42.678;23.332;2023-02-12T10:44:47;95640.31;;;1.02;100.00
13209;BME280;6669;42.678;23.332;2023-02-12T10:47:18;95635.03;;;1.05;100.00
13209;BME280;6669;42.678;23.332;2023-02-12T10:49:50;95642.06;;;1.16;100.00
13209;BME280;6669;42.678;23.332;2023-02-12T10:52:33;95628.69;;;0.96;100.00
13209;BME280;6669;42.678;23.332;2023-02-12T10:55:23;95636.50;;;1.09;100.00
13209;BME280;6669;42.678;23.332;2023-02-12T10:57:51;95645.50;;;1.30;100.00
13209;BME280;6669;42.678;23.332;2023-02-12T11:00:25;95639.34;;;1.33;100.00
13209;BME280;6669;42.678;23.332;2023-02-12T11:03:03;95651.72;;;1.55;100.00
13209;BME280;6669;42.678;23.332;2023-02-12T11:05:34;95652.09;;;1.49;100.00
13209;BME280;6669;42.678;23.332;2023-02-12T11:08:04;95648.19;;;1.58;100.00
13209;BME280;6669;42.678;23.332;2023-02-12T11:10:37;95651.66;;;1.57;100.00
13209;BME280;6669;42.678;23.332;2023-02-12T11:13:21;95639.19;;;1.65;100.00
13209;BME280;6669;42.678;23.332;2023-02-12T11:15:50;95639.84;;;1.69;100.00
13209;BME280;6669;42.678;23.332;2023-02-12T11:18:21;95646.50;;;1.71;100.00
13209;BME280;6669;42.678;23.332;2023-02-12T11:20:54;95640.09;;;1.78;100.00
13209;BME280;6669;42.678;23.332;2023-02-12T11:23:28;95639.53;;;1.88;100.00
13209;BME280;6669;42.678;23.332;2023-02-12T11:25:59;95640.81;;;1.95;100.00
13209;BME280;6669;42.678;23.332;2023-02-12T11:28:28;95642.13;;;1.73;100.00
13209;BME280;6669;42.678;23.332;2023-02-12T11:30:58;95645.09;;;1.94;100.00
13209;BME280;6669;42.678;23.332;2023-02-12T11:33:32;95638.34;;;1.79;100.00
13209;BME280;6669;42.678;23.332;2023-02-12T11:36:03;95639.91;;;1.96;100.00
13209;BME280;6669;42.678;23.332;2023-02-12T11:38:36;95632.22;;;1.96;100.00
13209;BME280;6669;42.678;23.332;2023-02-12T11:41:16;95633.03;;;1.96;100.00
13209;BME280;6669;42.678;23.332;2023-02-12T11:43:45;95632.28;;;1.94;100.00
13209;BME280;6669;42.678;23.332;2023-02-12T11:46:18;95640.72;;;1.96;100.00
13209;BME280;6669;42.678;23.332;2023-02-12T11:48:47;95634.78;;;1.96;100.00
13209;BME280;6669;42.678;23.332;2023-02-12T11:51:19;95626.88;;;1.99;100.00
13209;BME280;6669;42.678;23.332;2023-02-12T11:53:51;95634.47;;;2.01;100.00
13209;BME280;6669;42.678;23.332;2023-02-12T11:56:20;95641.00;;;2.06;100.00
13209;BME280;6669;42.678;23.332;2023-02-12T11:58:49;95636.03;;;2.03;100.00
13209;BME280;6669;42.678;23.332;2023-02-12T12:01:20;95628.06;;;2.08;100.00
13209;BME280;6669;42.678;23.332;2023-02-12T12:03:54;95640.59;;;2.12;100.00
13209;BME280;6669;42.678;23.332;2023-02-12T12:06:31;95632.63;;;2.17;100.00
13209;BME280;6669;42.678;23.332;2023-02-12T12:09:05;95637.56;;;2.20;100.00
13209;BME280;6669;42.678;23.332;2023-02-12T12:11:41;95634.69;;;2.25;100.00
13209;BME280;6669;42.678;23.332;2023-02-12T12:14:15;95641.69;;;2.23;100.00
13209;BME280;6669;42.678;23.332;2023-02-12T12:16:49;95638.66;;;2.16;100.00
13209;BME280;6669;42.678;23.332;2023-02-12T12:19:45;95638.66;;;2.16;100.00
13209;BME280;6669;42.678;23.332;2023-02-12T12:22:38;95641.91;;;2.33;100.00
13209;BME280;6669;42.678;23.332;2023-02-12T12:25:16;95644.06;;;2.26;100.00
13209;BME280;6669;42.678;23.332;2023-02-12T12:27:55;95650.53;;;2.32;100.00
13209;BME280;6669;42.678;23.332;2023-02-12T12:30:47;95653.25;;;2.43;100.00
13209;BME280;6669;42.678;23.332;2023-02-12T12:33:23;95647.31;;;2.42;100.00
13209;BME280;6669;42.678;23.332;2023-02-12T12:36:03;95641.97;;;2.45;100.00
13209;BME280;6669;42.678;23.332;2023-02-12T12:38:44;95650.84;;;2.54;100.00
13209;BME280;6669;42.678;23.332;2023-02-12T12:41:23;95646.81;;;2.50;100.00
13209;BME280;6669;42.678;23.332;2023-02-12T12:44:06;95656.88;;;2.53;100.00
13209;BME280;6669;42.678;23.332;2023-02-12T12:46:52;95655.44;;;2.49;100.00
13209;BME280;6669;42.678;23.332;2023-02-12T12:49:37;95655.91;;;2.41;100.00
13209;BME280;6669;42.678;23.332;2023-02-12T12:52:21;95664.56;;;2.53;100.00
13209;BME280;6669;42.678;23.332;2023-02-12T12:55:06;95666.22;;;2.54;100.00
13209;BME280;6669;42.678;23.332;2023-02-12T12:57:51;95664.03;;;2.48;100.00
13209;BME280;6669;42.678;23.332;2023-02-12T13:00:34;95666.38;;;2.66;100.00
13209;BME280;6669;42.678;23.332;2023-02-12T13:03:42;95666.69;;;2.61;100.00
13209;BME280;6669;42.678;23.332;2023-02-12T13:06:30;95670.56;;;2.54;100.00
13209;BME280;6669;42.678;23.332;2023-02-12T13:09:17;95665.22;;;2.57;100.00
13209;BME280;6669;42.678;23.332;2023-02-12T13:12:02;95680.66;;;2.70;100.00
13209;BME280;6669;42.678;23.332;2023-02-12T13:14:42;95676.47;;;2.69;100.00
13209;BME280;6669;42.678;23.332;2023-02-12T13:17:18;95673.66;;;2.59;100.00
13209;BME280;6669;42.678;23.332;2023-02-12T13:19:57;95672.75;;;2.45;100.00
13209;BME280;6669;42.678;23.332;2023-02-12T13:22:31;95684.31;;;2.53;100.00
13209;BME280;6669;42.678;23.332;2023-02-12T13:25:06;95669.38;;;2.45;100.00
13209;BME280;6669;42.678;23.332;2023-02-12T13:27:43;95676.44;;;2.41;100.00